Time;durP1;ratioP1;P1;durP2;ratioP2;P2;SDS_P1;SDS_P2;PMS_P1;PMS_P2;Temp;Humidity;BMP_temperature;BMP_pressure;BME280_temperature;BME280_humidity;BME280_pressure;Samples;Min_cycle;Max_cycle;Signal;HPM_P1;HPM_P2
2022/01/13 00:01:08;;;;;;;23.73;15.67;;;1.60;99.90;;;;;;5112713;28;20630;-56
2022/01/13 00:03:36;;;;;;;21.87;14.97;;;1.60;99.90;;;;;;5112304;28;20197;-55
2022/01/13 00:06:04;;;;;;;22.03;16.30;;;1.70;99.90;;;;;;5111527;28;20277;-55
2022/01/13 00:08:32;;;;;;;21.87;15.53;;;1.70;99.90;;;;;;5111882;28;20232;-55
2022/01/13 00:11:00;;;;;;;23.83;16.60;;;1.70;99.90;;;;;;5112802;28;20252;-56
2022/01/13 00:13:35;;;;;;;20.87;15.93;;;1.70;99.90;;;;;;5111992;28;20674;-54
2022/01/13 00:16:25;;;;;;;25.83;16.57;;;1.80;99.90;;;;;;5117244;27;20201;-55
2022/01/13 00:19:06;;;;;;;21.33;15.83;;;1.90;99.90;;;;;;5112403;28;20238;-55
2022/01/13 00:21:38;;;;;;;23.97;16.80;;;1.90;99.90;;;;;;5112709;28;20319;-55
2022/01/13 00:24:11;;;;;;;19.03;15.07;;;2.00;99.90;;;;;;5111854;28;20210;-56
2022/01/13 00:26:40;;;;;;;21.17;15.20;;;2.00;99.90;;;;;;5112111;28;20259;-55
2022/01/13 00:29:09;;;;;;;19.97;15.20;;;2.10;99.90;;;;;;5111778;28;20598;-56
2022/01/13 00:31:40;;;;;;;20.93;15.53;;;2.20;99.90;;;;;;5112184;28;20260;-55
2022/01/13 00:34:10;;;;;;;19.70;15.47;;;2.20;99.90;;;;;;5111733;28;20294;-54
2022/01/13 00:36:41;;;;;;;23.80;16.50;;;2.20;99.90;;;;;;5111592;28;20216;-55
2022/01/13 00:39:10;;;;;;;25.57;16.60;;;2.20;99.90;;;;;;5111959;28;20230;-55
2022/01/13 00:41:39;;;;;;;23.80;17.27;;;2.20;99.90;;;;;;5111829;28;20578;-55
2022/01/13 00:44:09;;;;;;;23.23;17.03;;;2.30;99.90;;;;;;5111858;28;20272;-55
2022/01/13 00:46:43;;;;;;;24.53;16.83;;;2.30;99.90;;;;;;5111468;28;20221;-55
2022/01/13 00:49:14;;;;;;;22.17;15.40;;;2.30;99.90;;;;;;5112108;28;20219;-56
2022/01/13 00:51:43;;;;;;;20.97;16.13;;;2.30;99.90;;;;;;5111770;28;20235;-55
2022/01/13 00:54:11;;;;;;;23.97;16.97;;;2.30;99.90;;;;;;5111276;28;20207;-55
2022/01/13 00:56:40;;;;;;;22.77;16.53;;;2.30;99.90;;;;;;5111859;28;20204;-54
2022/01/13 00:59:10;;;;;;;33.53;22.63;;;2.30;99.90;;;;;;5105134;28;20720;-55
2022/01/13 01:01:42;;;;;;;28.87;19.20;;;2.30;99.90;;;;;;5091234;28;20216;-55
2022/01/13 01:04:12;;;;;;;34.23;22.87;;;2.30;99.90;;;;;;5090775;28;20223;-54
2022/01/13 01:06:40;;;;;;;34.73;22.20;;;2.30;99.90;;;;;;5090976;28;20568;-54
2022/01/13 01:09:14;;;;;;;35.30;23.00;;;2.30;99.90;;;;;;5090305;28;20874;-54
2022/01/13 01:11:45;;;;;;;40.00;24.87;;;2.30;99.90;;;;;;5098512;28;20195;-55
2022/01/13 01:14:14;;;;;;;38.47;23.87;;;2.40;99.90;;;;;;5090704;28;20893;-54
2022/01/13 01:16:43;;;;;;;36.57;23.70;;;2.40;99.90;;;;;;5122183;28;20198;-55
2022/01/13 01:19:14;;;;;;;37.80;23.77;;;2.30;99.90;;;;;;5133956;27;20645;-55
2022/01/13 01:24:57;;;;;;;35.50;23.70;;;2.30;99.90;;;;;;5099279;27;20221;-54
2022/01/13 01:27:30;;;;;;;38.07;24.40;;;2.20;99.90;;;;;;5136613;27;20230;-55
2022/01/13 01:30:03;;;;;;;42.70;24.60;;;2.20;99.90;;;;;;5132938;27;20258;-54
2022/01/13 01:32:34;;;;;;;36.63;24.50;;;2.20;99.90;;;;;;5115436;28;20700;-54
2022/01/13 01:35:12;;;;;;;38.83;24.20;;;2.20;99.90;;;;;;5115759;28;20238;-55
2022/01/13 01:37:41;;;;;;;41.13;25.20;;;2.20;99.90;;;;;;5115278;28;20253;-54
2022/01/13 01:40:11;;;;;;;42.53;25.60;;;2.30;99.90;;;;;;5115244;28;20231;-55
2022/01/13 01:42:40;;;;;;;43.00;25.50;;;2.30;99.90;;;;;;5115183;28;20295;-56
2022/01/13 01:45:10;;;;;;;39.50;25.33;;;2.20;99.90;;;;;;5115329;28;20251;-54
2022/01/13 01:47:38;;;;;;;37.53;24.57;;;2.20;99.90;;;;;;5114980;28;20237;-56
2022/01/13 01:50:17;;;;;;;40.57;24.93;;;2.30;99.90;;;;;;5114816;28;20284;-55
2022/01/13 01:52:46;;;;;;;44.13;26.40;;;2.40;99.90;;;;;;5115076;28;20195;-55
2022/01/13 01:55:15;;;;;;;33.53;22.90;;;2.30;99.90;;;;;;5115547;28;20211;-54
2022/01/13 01:57:43;;;;;;;35.20;21.83;;;2.30;99.90;;;;;;5114902;28;20202;-56
2022/01/13 02:00:15;;;;;;;28.70;20.13;;;2.30;99.90;;;;;;5114382;28;20226;-55
2022/01/13 02:02:45;;;;;;;27.33;19.30;;;2.40;99.90;;;;;;5115422;28;20245;-55
2022/01/13 02:05:14;;;;;;;26.97;18.57;;;2.40;99.90;;;;;;5114984;28;20207;-54
2022/01/13 02:07:43;;;;;;;26.50;19.00;;;2.40;99.90;;;;;;5115018;28;20219;-56
2022/01/13 02:10:11;;;;;;;27.37;18.47;;;2.30;99.90;;;;;;5114036;28;20228;-54
2022/01/13 02:12:45;;;;;;;31.83;21.23;;;2.30;99.90;;;;;;5115087;28;20202;-54
2022/01/13 02:15:29;;;;;;;28.57;19.17;;;2.40;99.90;;;;;;5117178;27;20279;-55
2022/01/13 02:17:57;;;;;;;29.67;20.43;;;2.40;99.90;;;;;;5135617;27;20184;-55
2022/01/13 02:20:41;;;;;;;33.63;22.20;;;2.40;99.90;;;;;;5135335;27;20242;-54
2022/01/13 02:23:09;;;;;;;33.20;21.90;;;2.50;99.90;;;;;;5135107;27;20219;-56
2022/01/13 02:25:37;;;;;;;29.43;21.67;;;2.50;99.90;;;;;;5135247;27;20348;-56
2022/01/13 02:28:06;;;;;;;39.40;23.63;;;2.50;99.90;;;;;;5115560;27;20600;-55
2022/01/13 02:30:34;;;;;;;32.03;22.40;;;2.40;99.90;;;;;;5114094;28;20206;-55
2022/01/13 02:33:02;;;;;;;33.93;20.57;;;2.40;99.90;;;;;;5114180;28;20250;-54
2022/01/13 02:35:37;;;;;;;29.80;21.07;;;2.40;99.90;;;;;;5114159;28;20225;-55
2022/01/13 02:38:10;;;;;;;29.47;21.10;;;2.40;99.90;;;;;;5106201;28;20268;-54
2022/01/13 02:40:39;;;;;;;30.80;21.40;;;2.40;99.90;;;;;;5114700;28;20207;-55
2022/01/13 02:43:07;;;;;;;33.60;22.77;;;2.40;99.90;;;;;;5113842;28;20274;-55
2022/01/13 02:45:39;;;;;;;29.13;21.97;;;2.40;99.90;;;;;;5114217;28;20257;-55
2022/01/13 02:48:26;;;;;;;37.37;23.70;;;2.40;99.90;;;;;;5114007;28;20205;-55
2022/01/13 02:50:56;;;;;;;50.53;28.30;;;2.40;99.90;;;;;;5114068;28;20223;-56
2022/01/13 02:53:24;;;;;;;43.27;26.87;;;2.30;99.90;;;;;;5113365;28;20221;-55
2022/01/13 02:55:56;;;;;;;42.00;25.77;;;2.30;99.90;;;;;;5113842;28;20679;-55
2022/01/13 02:58:24;;;;;;;41.13;25.10;;;2.40;99.90;;;;;;5113206;28;20223;-55
2022/01/13 03:00:52;;;;;;;50.77;29.00;;;2.30;99.90;;;;;;5093268;28;20562;-55
2022/01/13 03:03:21;;;;;;;49.67;27.70;;;2.30;99.90;;;;;;5093224;28;20200;-55
2022/01/13 03:05:49;;;;;;;51.90;28.40;;;2.30;99.90;;;;;;5106391;28;20226;-56
2022/01/13 03:08:20;;;;;;;48.03;28.00;;;2.30;99.90;;;;;;5112954;28;20255;-54
2022/01/13 03:10:48;;;;;;;75.40;29.63;;;2.30;99.90;;;;;;5113670;28;20565;-55
2022/01/13 03:13:21;;;;;;;47.80;26.37;;;2.30;99.90;;;;;;5113379;28;20197;-54
2022/01/13 03:15:50;;;;;;;63.37;28.27;;;2.30;99.90;;;;;;5120811;27;20228;-55
2022/01/13 03:18:18;;;;;;;105.97;29.80;;;2.20;99.90;;;;;;5113154;27;20227;-55
2022/01/13 03:20:46;;;;;;;298.97;42.10;;;2.20;99.90;;;;;;5113379;28;20227;-53
2022/01/13 03:23:16;;;;;;;133.47;32.80;;;2.00;99.90;;;;;;5113351;28;20215;-55
2022/01/13 03:25:47;;;;;;;130.87;32.30;;;2.10;99.90;;;;;;5113379;28;20691;-55
2022/01/13 03:28:18;;;;;;;128.73;31.83;;;2.10;99.90;;;;;;5112674;28;20261;-54
2022/01/13 03:30:46;;;;;;;73.37;27.67;;;2.00;99.90;;;;;;5097913;28;20208;-55
2022/01/13 03:33:14;;;;;;;172.87;32.50;;;2.10;99.90;;;;;;5092280;28;20579;-54
2022/01/13 03:35:43;;;;;;;72.53;25.00;;;2.10;99.90;;;;;;5106343;28;20618;-55
2022/01/13 03:38:12;;;;;;;224.50;32.07;;;2.10;99.90;;;;;;5112763;28;20215;-55
2022/01/13 03:40:40;;;;;;;115.37;28.53;;;2.00;99.90;;;;;;5114592;28;20577;-55
2022/01/13 03:43:10;;;;;;;102.87;31.13;;;2.00;99.90;;;;;;5114665;28;20667;-55
2022/01/13 03:45:39;;;;;;;124.10;27.37;;;2.00;99.90;;;;;;5114542;28;20247;-56
2022/01/13 03:48:07;;;;;;;145.47;30.37;;;2.10;99.90;;;;;;5119867;27;20619;-55
2022/01/13 03:50:36;;;;;;;329.73;38.13;;;2.10;99.90;;;;;;5134271;27;20727;-54
2022/01/13 03:53:54;;;;;;;113.57;26.60;;;2.00;99.90;;;;;;5125535;27;20607;-55
2022/01/13 03:57:18;;;;;;;142.60;28.27;;;2.00;99.90;;;;;;5112526;28;20229;-55
2022/01/13 04:00:24;;;;;;;77.30;24.40;;;1.90;99.90;;;;;;5111853;28;20222;-56
2022/01/13 04:02:52;;;;;;;63.40;24.87;;;2.00;99.90;;;;;;5053523;28;20260;-55
2022/01/13 04:05:20;;;;;;;49.87;22.70;;;2.00;99.90;;;;;;5112266;28;20300;-55
2022/01/13 04:07:48;;;;;;;289.03;36.33;;;1.90;99.90;;;;;;5112344;28;20295;-55
2022/01/13 04:11:00;;;;;;;153.93;28.83;;;1.80;99.90;;;;;;5105125;27;20253;-55
2022/01/13 04:13:45;;;;;;;150.30;28.07;;;1.80;99.90;;;;;;5112232;27;20675;-55
2022/01/13 04:16:17;;;;;;;103.27;25.10;;;1.90;99.90;;;;;;5123648;27;20256;-56
2022/01/13 04:18:46;;;;;;;172.60;31.13;;;1.90;99.90;;;;;;5129214;27;20222;-54
2022/01/13 04:21:15;;;;;;;203.17;29.93;;;1.90;99.90;;;;;;5112211;28;20237;-55
2022/01/13 04:23:43;;;;;;;129.63;27.30;;;2.00;99.90;;;;;;5111916;28;20748;-56
2022/01/13 04:26:15;;;;;;;216.90;31.70;;;2.00;99.90;;;;;;5112140;28;20658;-54
2022/01/13 04:28:45;;;;;;;108.77;26.13;;;2.10;99.90;;;;;;5124806;27;20649;-56
2022/01/13 04:31:15;;;;;;;174.03;31.07;;;2.10;99.90;;;;;;5118277;27;20225;-55
2022/01/13 04:33:43;;;;;;;164.57;26.90;;;2.00;99.90;;;;;;5111841;28;20209;-55
2022/01/13 04:36:11;;;;;;;162.40;27.70;;;2.00;99.90;;;;;;5111763;28;20199;-54
2022/01/13 04:38:39;;;;;;;175.93;28.57;;;2.10;99.90;;;;;;5111461;28;20222;-55
2022/01/13 04:41:07;;;;;;;132.63;29.20;;;2.10;99.90;;;;;;5111915;28;20739;-54
2022/01/13 04:43:35;;;;;;;167.00;29.03;;;2.10;99.90;;;;;;5111528;28;20203;-55
2022/01/13 04:46:03;;;;;;;103.83;27.87;;;2.10;99.90;;;;;;5112231;28;20204;-54
2022/01/13 04:48:33;;;;;;;133.80;26.93;;;2.00;99.90;;;;;;5121721;27;20222;-55
2022/01/13 04:51:01;;;;;;;196.73;29.90;;;2.00;99.90;;;;;;5132212;27;20263;-55
2022/01/13 04:53:29;;;;;;;149.83;27.87;;;2.00;99.90;;;;;;5119980;27;20234;-55
2022/01/13 04:55:58;;;;;;;138.10;27.73;;;2.00;99.90;;;;;;5111426;28;20204;-54
2022/01/13 04:58:27;;;;;;;165.00;29.37;;;2.00;99.90;;;;;;5103360;28;20216;-55
2022/01/13 05:00:55;;;;;;;243.10;31.43;;;1.90;99.90;;;;;;5111600;28;20208;-54
2022/01/13 05:03:23;;;;;;;85.20;24.70;;;1.90;99.90;;;;;;5111664;28;20231;-56
2022/01/13 05:05:52;;;;;;;175.20;29.93;;;1.90;99.90;;;;;;5111564;28;20206;-56
2022/01/13 05:08:21;;;;;;;118.43;28.40;;;1.90;99.90;;;;;;5110365;28;20309;-56
2022/01/13 05:10:49;;;;;;;214.87;32.47;;;1.80;99.90;;;;;;5125397;27;20198;-56
2022/01/13 05:13:17;;;;;;;113.97;25.87;;;1.80;99.90;;;;;;5114928;28;20627;-55
2022/01/13 05:15:45;;;;;;;138.90;28.10;;;1.70;99.90;;;;;;5118669;28;20205;-55
2022/01/13 05:18:24;;;;;;;223.40;36.60;;;1.70;99.90;;;;;;5131947;28;20358;-55
2022/01/13 05:21:01;;;;;;;98.00;26.60;;;1.60;99.90;;;;;;5132204;28;20191;-55
2022/01/13 05:23:29;;;;;;;227.43;32.80;;;1.70;99.90;;;;;;5113230;28;20214;-54
2022/01/13 05:25:57;;;;;;;166.87;28.50;;;1.60;99.90;;;;;;5111827;28;20232;-55
2022/01/13 05:28:26;;;;;;;92.33;26.60;;;1.60;99.90;;;;;;5110696;28;20277;-56
2022/01/13 05:30:54;;;;;;;103.30;27.83;;;1.60;99.90;;;;;;5111567;28;20206;-55
2022/01/13 05:33:22;;;;;;;138.00;30.13;;;1.70;99.90;;;;;;5110640;28;20620;-55
2022/01/13 05:35:50;;;;;;;86.67;25.00;;;1.60;99.90;;;;;;5106756;28;20207;-55
2022/01/13 05:38:19;;;;;;;66.40;22.73;;;1.60;99.90;;;;;;5110548;28;20275;-55
2022/01/13 05:40:47;;;;;;;154.07;27.97;;;1.70;99.90;;;;;;5111044;28;20220;-55
2022/01/13 05:43:15;;;;;;;304.17;33.30;;;1.60;99.90;;;;;;5111163;28;20215;-56
2022/01/13 05:45:44;;;;;;;151.37;29.37;;;1.60;99.90;;;;;;5110678;28;20207;-54
2022/01/13 05:48:12;;;;;;;163.47;29.63;;;1.50;99.90;;;;;;5111648;28;20293;-54
2022/01/13 05:50:40;;;;;;;130.30;29.30;;;1.60;99.90;;;;;;5131106;28;20262;-56
2022/01/13 05:53:08;;;;;;;71.23;26.53;;;1.50;99.90;;;;;;5122583;28;20198;-54
2022/01/13 05:55:38;;;;;;;239.37;37.17;;;1.60;99.90;;;;;;5110879;28;20207;-54
2022/01/13 05:58:06;;;;;;;56.30;22.90;;;1.60;99.90;;;;;;5102784;28;20667;-56
2022/01/13 06:00:35;;;;;;;50.30;22.07;;;1.60;99.90;;;;;;5102689;28;20208;-55
2022/01/13 06:03:04;;;;;;;46.47;23.27;;;1.70;99.90;;;;;;5111205;28;20299;-55
2022/01/13 06:05:33;;;;;;;200.77;32.20;;;1.80;99.90;;;;;;5113402;28;20687;-54
2022/01/13 06:08:01;;;;;;;59.63;24.77;;;1.70;99.90;;;;;;5114044;28;20563;-55
2022/01/13 06:10:29;;;;;;;197.20;34.30;;;1.70;99.90;;;;;;5115062;28;20214;-54
2022/01/13 06:12:59;;;;;;;48.43;24.00;;;1.60;99.90;;;;;;5100323;28;20555;-54
2022/01/13 06:15:27;;;;;;;86.27;24.30;;;1.50;99.90;;;;;;5098715;28;20626;-55
2022/01/13 06:17:56;;;;;;;66.67;23.97;;;1.50;99.90;;;;;;5114487;28;20210;-55
2022/01/13 06:20:25;;;;;;;64.27;25.60;;;1.40;99.90;;;;;;5107469;28;20342;-54
2022/01/13 06:22:54;;;;;;;43.20;22.57;;;1.40;99.90;;;;;;5101516;28;20212;-55
2022/01/13 06:25:22;;;;;;;117.63;30.37;;;1.30;99.90;;;;;;5093821;28;20249;-54
2022/01/13 06:27:51;;;;;;;83.77;27.57;;;1.40;99.90;;;;;;5093258;28;20266;-55
2022/01/13 06:30:40;;;;;;;160.07;35.30;;;1.50;99.90;;;;;;5101114;27;20291;-54
2022/01/13 06:33:08;;;;;;;98.30;30.03;;;1.50;99.90;;;;;;5093614;28;20211;-54
2022/01/13 06:35:37;;;;;;;59.30;25.63;;;1.50;99.90;;;;;;5111444;28;20206;-54
2022/01/13 06:38:05;;;;;;;117.47;33.10;;;1.60;99.90;;;;;;5113790;28;20210;-55
2022/01/13 06:40:33;;;;;;;145.70;35.10;;;1.70;99.90;;;;;;5113770;28;20738;-55
2022/01/13 06:43:01;;;;;;;172.90;38.57;;;1.50;99.90;;;;;;5112762;28;20292;-55
2022/01/13 06:45:30;;;;;;;161.93;32.03;;;1.50;99.90;;;;;;5113924;28;20211;-57
2022/01/13 06:47:59;;;;;;;72.63;29.87;;;1.50;99.90;;;;;;5113413;28;20223;-55
2022/01/13 06:50:28;;;;;;;113.57;30.70;;;1.60;99.90;;;;;;5122675;27;20858;-55
2022/01/13 06:52:56;;;;;;;158.77;35.50;;;1.60;99.90;;;;;;5121022;27;20220;-55
2022/01/13 06:55:25;;;;;;;220.80;36.33;;;1.50;99.90;;;;;;5125896;27;20216;-55
2022/01/13 06:57:53;;;;;;;101.43;32.07;;;1.50;99.90;;;;;;5113026;28;20224;-55
2022/01/13 07:00:23;;;;;;;177.57;33.63;;;1.50;99.90;;;;;;5083073;28;20254;-55
2022/01/13 07:02:52;;;;;;;190.73;38.13;;;1.50;99.90;;;;;;5087736;28;20212;-56
2022/01/13 07:05:23;;;;;;;84.53;31.03;;;1.50;99.90;;;;;;5093366;28;20239;-55
2022/01/13 07:07:51;;;;;;;82.17;29.03;;;1.60;99.90;;;;;;5099111;28;20206;-56
2022/01/13 07:10:19;;;;;;;53.33;26.27;;;1.50;99.90;;;;;;5106820;27;20216;-55
2022/01/13 07:12:48;;;;;;;87.07;30.07;;;1.70;99.90;;;;;;5121171;27;20199;-55
2022/01/13 07:15:16;;;;;;;52.03;24.53;;;1.70;99.90;;;;;;5112954;28;20243;-55
2022/01/13 07:17:44;;;;;;;99.77;27.43;;;1.70;99.90;;;;;;5112561;28;20744;-55
2022/01/13 07:20:13;;;;;;;70.73;25.03;;;1.80;99.90;;;;;;5112617;28;20219;-56
2022/01/13 07:22:42;;;;;;;59.27;24.47;;;1.80;99.90;;;;;;5113408;28;20219;-56
2022/01/13 07:25:11;;;;;;;46.40;24.37;;;1.80;99.90;;;;;;5113125;28;20832;-55
2022/01/13 07:27:40;;;;;;;52.13;24.60;;;1.80;99.90;;;;;;5113192;28;20584;-54
2022/01/13 07:30:10;;;;;;;102.40;27.73;;;1.80;99.90;;;;;;5112200;28;20280;-55
2022/01/13 07:32:39;;;;;;;136.97;29.00;;;1.80;99.90;;;;;;5113209;28;20721;-55
2022/01/13 07:35:09;;;;;;;78.53;26.63;;;1.70;99.90;;;;;;5106396;28;20603;-55
2022/01/13 07:37:37;;;;;;;157.20;33.10;;;1.70;99.90;;;;;;5105316;28;20264;-55
2022/01/13 07:40:13;;;;;;;48.20;24.40;;;1.70;99.90;;;;;;5112361;28;20231;-56
2022/01/13 07:42:42;;;;;;;108.03;28.40;;;1.70;99.90;;;;;;5113469;28;20211;-56
2022/01/13 07:45:11;;;;;;;92.97;27.73;;;1.80;99.90;;;;;;5113105;28;20260;-54
2022/01/13 07:47:39;;;;;;;131.37;29.20;;;1.80;99.90;;;;;;5110255;28;20735;-55
2022/01/13 07:50:09;;;;;;;121.83;29.40;;;1.70;99.90;;;;;;5125700;27;20225;-55
2022/01/13 07:52:37;;;;;;;97.77;27.37;;;1.70;99.90;;;;;;5128109;27;20264;-56
2022/01/13 07:55:07;;;;;;;73.00;26.00;;;1.70;99.90;;;;;;5108589;28;20211;-54
2022/01/13 07:57:36;;;;;;;263.43;38.57;;;1.60;99.90;;;;;;5112408;28;20797;-56
2022/01/13 08:00:05;;;;;;;112.20;28.47;;;1.60;99.90;;;;;;5097607;28;20223;-56
2022/01/13 08:02:34;;;;;;;66.50;26.17;;;1.60;99.90;;;;;;5092056;28;20250;-55
2022/01/13 08:05:02;;;;;;;243.23;36.23;;;1.60;99.90;;;;;;5108103;28;20294;-54
2022/01/13 08:07:30;;;;;;;254.73;35.83;;;1.70;99.90;;;;;;5112174;28;20291;-54
2022/01/13 08:09:59;;;;;;;402.20;45.80;;;1.70;99.90;;;;;;5105678;28;20268;-55
2022/01/13 08:12:28;;;;;;;89.07;27.03;;;1.70;99.90;;;;;;5112492;27;20211;-56
2022/01/13 08:14:56;;;;;;;216.73;34.30;;;1.70;99.90;;;;;;5112229;27;20253;-55
2022/01/13 08:20:10;;;;;;;106.57;28.30;;;1.80;99.90;;;;;;5132846;27;20342;-55
2022/01/13 08:22:39;;;;;;;201.90;34.40;;;1.80;99.90;;;;;;5119773;27;20211;-56
2022/01/13 08:25:09;;;;;;;77.50;26.57;;;1.80;99.90;;;;;;5111966;28;20562;-56
2022/01/13 08:27:39;;;;;;;221.03;36.00;;;1.80;99.90;;;;;;5112140;28;20214;-55
2022/01/13 08:30:09;;;;;;;112.23;28.73;;;1.80;99.90;;;;;;5101918;28;20645;-56
2022/01/13 08:32:37;;;;;;;232.60;32.93;;;1.80;99.90;;;;;;5106920;28;20233;-54
2022/01/13 08:35:06;;;;;;;134.50;28.20;;;1.80;99.90;;;;;;5111289;28;20252;-56
2022/01/13 08:37:34;;;;;;;190.57;32.22;;;1.80;99.90;;;;;;5107196;28;20486;-56
2022/01/13 08:40:05;;;;;;;177.80;32.07;;;1.90;99.90;;;;;;5111899;28;20258;-55
2022/01/13 08:42:34;;;;;;;305.93;39.63;;;1.70;99.90;;;;;;5111532;28;20265;-55
2022/01/13 08:45:05;;;;;;;82.77;28.20;;;1.80;99.90;;;;;;5111704;28;20265;-55
2022/01/13 08:47:34;;;;;;;73.77;24.40;;;1.80;99.90;;;;;;5111611;28;20200;-55
2022/01/13 08:50:02;;;;;;;217.33;33.37;;;1.80;99.90;;;;;;5128250;27;20222;-54
2022/01/13 08:52:31;;;;;;;78.93;24.60;;;1.90;99.90;;;;;;5127772;27;20253;-54
2022/01/13 08:54:59;;;;;;;112.43;24.93;;;1.90;99.90;;;;;;5112130;28;20201;-55
2022/01/13 08:57:27;;;;;;;100.17;22.70;;;2.00;99.90;;;;;;5111164;28;20551;-55
2022/01/13 08:59:55;;;;;;;192.00;27.27;;;2.00;99.90;;;;;;5102193;28;20245;-56
2022/01/13 09:02:25;;;;;;;162.93;26.20;;;2.00;99.90;;;;;;5111686;28;20206;-56
2022/01/13 09:04:53;;;;;;;91.13;23.70;;;2.00;99.90;;;;;;5111781;28;20234;-54
2022/01/13 09:07:21;;;;;;;139.40;26.73;;;2.00;99.90;;;;;;5111178;28;20202;-55
2022/01/13 09:10:06;;;;;;;178.10;26.70;;;2.00;99.90;;;;;;5118293;28;20310;-54
2022/01/13 09:12:35;;;;;;;86.00;24.70;;;1.90;99.90;;;;;;5106022;28;20208;-56
2022/01/13 09:15:15;;;;;;;134.40;26.43;;;1.80;99.90;;;;;;5112589;27;20261;-54
2022/01/13 09:17:46;;;;;;;167.20;24.60;;;1.80;99.90;;;;;;5129529;27;20202;-55
2022/01/13 09:20:15;;;;;;;328.13;35.87;;;1.90;99.90;;;;;;5111174;28;20351;-55
2022/01/13 09:22:43;;;;;;;138.83;25.80;;;1.90;99.90;;;;;;5111215;28;20215;-55
2022/01/13 09:25:12;;;;;;;194.90;27.37;;;1.90;99.90;;;;;;5111375;28;20259;-55
2022/01/13 09:27:41;;;;;;;227.10;27.13;;;1.90;99.90;;;;;;5111693;28;20266;-55
2022/01/13 09:30:11;;;;;;;127.40;23.83;;;2.00;99.90;;;;;;5110825;28;20226;-55
2022/01/13 09:32:39;;;;;;;207.87;29.03;;;2.00;99.90;;;;;;5111284;28;20206;-55
2022/01/13 09:35:10;;;;;;;167.73;28.80;;;2.00;99.90;;;;;;5106223;28;20696;-55
2022/01/13 09:37:38;;;;;;;78.43;23.10;;;2.10;99.90;;;;;;5095253;28;20244;-55
2022/01/13 09:40:09;;;;;;;295.83;33.00;;;2.20;99.90;;;;;;5112486;27;20786;-56
2022/01/13 09:42:41;;;;;;;163.10;27.17;;;2.00;99.90;;;;;;5115529;28;20203;-55
2022/01/13 09:45:10;;;;;;;150.07;26.70;;;2.10;99.90;;;;;;5114969;28;20268;-55
2022/01/13 09:47:40;;;;;;;220.10;28.40;;;2.10;99.90;;;;;;5113034;28;20204;-55
2022/01/13 09:50:13;;;;;;;281.80;33.00;;;2.10;99.90;;;;;;5132432;27;20227;-54
2022/01/13 09:52:43;;;;;;;157.17;31.03;;;2.10;99.90;;;;;;5129953;27;20265;-54
2022/01/13 09:55:13;;;;;;;216.63;33.13;;;2.20;99.90;;;;;;5115141;28;20205;-54
2022/01/13 09:57:43;;;;;;;178.20;28.63;;;2.20;99.90;;;;;;5115049;28;20205;-55
2022/01/13 10:00:13;;;;;;;81.50;24.67;;;2.30;99.90;;;;;;5114886;28;20215;-55
2022/01/13 10:02:41;;;;;;;344.77;40.73;;;2.20;99.90;;;;;;5115485;28;20210;-55
2022/01/13 10:05:11;;;;;;;154.77;30.13;;;2.20;99.90;;;;;;5136030;27;20207;-56
2022/01/13 10:07:41;;;;;;;138.30;27.90;;;2.30;99.90;;;;;;5130217;27;20257;-54
2022/01/13 10:10:25;;;;;;;203.67;30.77;;;2.30;99.90;;;;;;5120810;27;20195;-54
2022/01/13 10:13:02;;;;;;;106.80;24.90;;;2.20;99.90;;;;;;5114384;28;20198;-55
2022/01/13 10:18:41;;;;;;;59.87;21.97;;;2.30;99.90;;;;;;5114238;28;20225;-55
2022/01/13 10:21:13;;;;;;;58.87;23.17;;;2.40;99.90;;;;;;5114696;28;20215;-55
2022/01/13 10:24:00;;;;;;;116.57;24.47;;;2.40;99.90;;;;;;5114160;28;20276;-55
2022/01/13 10:26:30;;;;;;;51.77;24.53;;;2.50;99.90;;;;;;5114283;28;20671;-55
2022/01/13 10:28:58;;;;;;;84.13;23.57;;;2.50;99.90;;;;;;5114103;28;20238;-55
2022/01/13 10:31:45;;;;;;;57.87;20.87;;;2.60;99.90;;;;;;5114397;28;20699;-56
2022/01/13 10:34:18;;;;;;;54.90;19.60;;;2.60;99.90;;;;;;5113100;28;20265;-55
2022/01/13 10:37:04;;;;;;;149.97;25.90;;;2.60;99.90;;;;;;5113488;28;20256;-55
2022/01/13 10:39:49;;;;;;;71.47;22.30;;;2.50;99.90;;;;;;5112212;28;20254;-55
2022/01/13 10:45:34;;;;;;;67.43;20.90;;;2.60;99.90;;;;;;5114265;28;20255;-55
2022/01/13 10:48:04;;;;;;;70.33;23.43;;;2.70;99.90;;;;;;5113656;28;20199;-55
2022/01/13 10:50:35;;;;;;;117.43;27.03;;;2.70;99.90;;;;;;5113672;28;20202;-55
2022/01/13 10:53:06;;;;;;;168.47;30.23;;;2.70;99.90;;;;;;5113380;28;20199;-54
2022/01/13 10:55:41;;;;;;;106.67;26.17;;;2.70;99.90;;;;;;5114220;28;20629;-55
2022/01/13 10:58:12;;;;;;;160.90;28.20;;;2.80;99.90;;;;;;5113456;28;20203;-54
2022/01/13 11:00:41;;;;;;;73.90;23.00;;;2.80;99.90;;;;;;5110002;28;20208;-55
2022/01/13 11:03:11;;;;;;;157.97;30.43;;;2.80;99.90;;;;;;5113004;28;20235;-55
2022/01/13 11:05:42;;;;;;;165.48;30.98;;;2.80;99.90;;;;;;5107349;28;20471;-56
2022/01/13 11:08:11;;;;;;;112.60;23.67;;;2.80;99.90;;;;;;5112915;28;20688;-56
2022/01/13 11:10:49;;;;;;;186.77;27.20;;;2.70;99.90;;;;;;5113724;27;20232;-56
2022/01/13 11:13:18;;;;;;;71.23;21.20;;;2.70;99.90;;;;;;5109612;28;20195;-56
2022/01/13 11:15:51;;;;;;;95.07;23.37;;;2.80;99.90;;;;;;5113270;28;20213;-55
2022/01/13 11:18:21;;;;;;;142.80;25.17;;;2.90;99.90;;;;;;5113482;28;20272;-55
2022/01/13 11:20:50;;;;;;;135.53;25.37;;;2.80;99.90;;;;;;5103821;28;20200;-55
2022/01/13 11:23:21;;;;;;;66.87;20.83;;;2.80;99.90;;;;;;5092353;28;20303;-56
2022/01/13 11:25:52;;;;;;;177.03;26.90;;;2.90;99.90;;;;;;5093010;28;20243;-55
2022/01/13 11:28:20;;;;;;;122.90;24.97;;;3.00;99.90;;;;;;5091692;28;20223;-54
2022/01/13 11:30:51;;;;;;;82.17;23.57;;;3.10;99.90;;;;;;5095412;28;20209;-54
2022/01/13 11:33:19;;;;;;;209.50;29.00;;;3.10;99.90;;;;;;5112855;28;20235;-55
2022/01/13 11:35:55;;;;;;;67.93;23.60;;;3.20;99.90;;;;;;5112350;28;20204;-55
2022/01/13 11:38:25;;;;;;;86.40;26.10;;;3.10;99.90;;;;;;5113254;28;20245;-54
2022/01/13 11:40:58;;;;;;;62.07;21.77;;;3.10;99.90;;;;;;5112674;28;20739;-55
2022/01/13 11:43:30;;;;;;;166.20;27.07;;;3.10;99.90;;;;;;5113163;28;20217;-55
2022/01/13 11:46:13;;;;;;;54.43;23.20;;;3.10;99.90;;;;;;5112549;28;20207;-55
2022/01/13 11:48:55;;;;;;;144.53;25.50;;;3.10;99.90;;;;;;5112971;28;20328;-61
2022/01/13 11:51:23;;;;;;;77.63;22.30;;;3.00;99.90;;;;;;5112127;28;20744;-56
2022/01/13 11:53:59;;;;;;;178.17;28.57;;;3.00;99.90;;;;;;5112858;28;20204;-55
2022/01/13 11:56:28;;;;;;;100.47;25.13;;;2.90;99.90;;;;;;5122860;27;20207;-54
2022/01/13 11:58:57;;;;;;;89.70;22.30;;;3.00;99.90;;;;;;5129423;27;20630;-56
2022/01/13 12:01:26;;;;;;;169.90;24.27;;;3.00;99.90;;;;;;5112243;28;20335;-56
2022/01/13 12:03:57;;;;;;;152.17;27.20;;;3.00;99.90;;;;;;5112158;28;20204;-54
2022/01/13 12:06:49;;;;;;;121.77;23.80;;;3.00;99.90;;;;;;5112283;28;20232;-56
2022/01/13 12:09:40;;;;;;;143.20;23.60;;;3.10;99.90;;;;;;5093198;27;20782;-55
2022/01/13 12:12:29;;;;;;;61.57;20.50;;;3.00;99.90;;;;;;5113645;27;20226;-55
2022/01/13 12:15:15;;;;;;;124.97;23.90;;;3.00;99.90;;;;;;5112438;28;20215;-56
2022/01/13 12:17:48;;;;;;;103.57;21.43;;;3.10;99.90;;;;;;5111873;28;20562;-55
2022/01/13 12:20:25;;;;;;;78.93;21.43;;;3.10;99.90;;;;;;5111809;28;20273;-55
2022/01/13 12:23:02;;;;;;;97.53;22.13;;;3.10;99.90;;;;;;5112230;28;20672;-55
2022/01/13 12:25:33;;;;;;;58.73;18.87;;;3.10;99.90;;;;;;5106411;28;20209;-55
2022/01/13 12:28:13;;;;;;;137.03;25.70;;;2.90;99.90;;;;;;5109758;28;20203;-54
2022/01/13 12:30:42;;;;;;;331.07;31.30;;;3.10;99.90;;;;;;5124311;27;20218;-54
2022/01/13 12:33:13;;;;;;;169.50;27.33;;;3.10;99.90;;;;;;5134472;27;20283;-55
2022/01/13 12:35:44;;;;;;;174.43;27.67;;;3.00;99.90;;;;;;5109692;27;20626;-55
2022/01/13 12:38:14;;;;;;;175.70;29.73;;;3.20;99.90;;;;;;5093016;28;20230;-55
2022/01/13 12:40:50;;;;;;;119.97;26.60;;;3.00;99.90;;;;;;5092168;28;20211;-55
2022/01/13 12:43:33;;;;;;;173.37;29.97;;;3.10;99.90;;;;;;5101230;28;20199;-57
2022/01/13 12:46:03;;;;;;;155.17;28.27;;;3.20;99.90;;;;;;5111146;28;20257;-55
2022/01/13 12:48:32;;;;;;;156.63;28.33;;;3.20;99.90;;;;;;5121508;27;20250;-54
2022/01/13 12:51:00;;;;;;;223.27;32.97;;;3.20;99.90;;;;;;5131896;27;20205;-55
2022/01/13 12:53:31;;;;;;;144.00;23.57;;;3.20;99.90;;;;;;5126129;27;20275;-55
2022/01/13 12:56:10;;;;;;;189.63;24.30;;;3.20;99.90;;;;;;5130557;27;20210;-57
2022/01/13 12:58:41;;;;;;;91.60;23.90;;;3.10;99.90;;;;;;5118253;27;20231;-55
2022/01/13 13:01:11;;;;;;;102.43;23.57;;;3.10;99.90;;;;;;5091141;28;20263;-55
2022/01/13 13:03:40;;;;;;;90.77;21.83;;;3.10;99.90;;;;;;5101264;28;20196;-56